Time;durP1;ratioP1;P1;durP2;ratioP2;P2;SDS_P1;SDS_P2;PMS_P1;PMS_P2;Temp;Humidity;BMP_temperature;BMP_pressure;BME280_temperature;BME280_humidity;BME280_pressure;Samples;Min_cycle;Max_cycle;Signal;HPM_P1;HPM_P2
2021/07/10 00:02:15;;;;;;;12.45;7.80;;;20.30;99.90;;;;;;4980221;28;20501;-61
2021/07/10 00:04:41;;;;;;;9.23;6.60;;;20.40;99.90;;;;;;4980219;28;20048;-60
2021/07/10 00:07:07;;;;;;;9.35;6.03;;;20.40;99.90;;;;;;5014492;28;20112;-60
2021/07/10 00:09:33;;;;;;;10.05;6.78;;;20.40;99.90;;;;;;4979702;28;20485;-61
2021/07/10 00:11:58;;;;;;;12.90;8.55;;;20.50;99.90;;;;;;4979531;28;20041;-59
2021/07/10 00:14:24;;;;;;;12.35;7.13;;;20.30;99.90;;;;;;5014494;28;20523;-61
2021/07/10 00:16:50;;;;;;;13.05;7.20;;;20.20;99.90;;;;;;5014360;28;20026;-60
2021/07/10 00:19:16;;;;;;;11.45;6.82;;;20.20;99.90;;;;;;5014446;28;20030;-61
2021/07/10 00:21:41;;;;;;;14.77;7.35;;;20.30;99.90;;;;;;4980115;28;20049;-60
2021/07/10 00:24:07;;;;;;;8.43;7.25;;;20.30;99.90;;;;;;4979832;28;20041;-60
2021/07/10 00:26:33;;;;;;;8.48;6.20;;;20.30;99.90;;;;;;4979862;28;20168;-60
2021/07/10 00:29:00;;;;;;;11.32;6.55;;;20.20;99.90;;;;;;5014187;28;20061;-61
2021/07/10 00:31:26;;;;;;;12.07;6.40;;;20.20;99.90;;;;;;5013924;28;20044;-59
2021/07/10 00:33:52;;;;;;;12.07;7.25;;;20.20;99.90;;;;;;5014325;28;20116;-60
2021/07/10 00:36:17;;;;;;;10.20;6.85;;;20.20;99.90;;;;;;5014223;28;20025;-59
2021/07/10 00:38:43;;;;;;;10.32;7.72;;;20.10;99.90;;;;;;5013834;28;20029;-60
2021/07/10 00:41:09;;;;;;;16.08;9.00;;;20.00;99.90;;;;;;5013709;28;20095;-61
2021/07/10 00:43:35;;;;;;;9.73;6.90;;;19.90;99.90;;;;;;5013738;28;20034;-60
2021/07/10 00:46:01;;;;;;;13.82;8.05;;;20.00;99.90;;;;;;5013846;28;20420;-60
2021/07/10 00:48:27;;;;;;;16.50;8.95;;;20.00;99.90;;;;;;5013888;28;20034;-60
2021/07/10 00:50:52;;;;;;;12.32;7.88;;;19.90;99.90;;;;;;5013594;28;20100;-60
2021/07/10 00:53:18;;;;;;;14.73;10.10;;;19.90;99.90;;;;;;4931552;28;20405;-60
2021/07/10 00:55:44;;;;;;;18.75;13.43;;;19.90;99.90;;;;;;5013772;28;20034;-60
2021/07/10 00:58:11;;;;;;;17.20;10.25;;;19.80;99.90;;;;;;5013794;28;20030;-59
2021/07/10 01:00:37;;;;;;;12.25;8.68;;;20.00;99.90;;;;;;5013552;28;20066;-59
2021/07/10 01:03:02;;;;;;;17.50;9.90;;;20.00;99.90;;;;;;5013710;28;20066;-60
2021/07/10 01:05:31;;;;;;;14.75;10.65;;;19.70;99.90;;;;;;5013918;28;20026;-60
2021/07/10 01:07:58;;;;;;;16.00;11.23;;;19.60;99.90;;;;;;5013598;28;20152;-59
2021/07/10 01:10:25;;;;;;;16.23;11.43;;;19.60;99.90;;;;;;5013520;28;20033;-59
2021/07/10 01:12:53;;;;;;;14.10;11.20;;;19.60;99.90;;;;;;5013311;28;20058;-60
2021/07/10 01:15:20;;;;;;;17.80;13.57;;;19.50;99.90;;;;;;5013695;28;20401;-59
2021/07/10 01:17:46;;;;;;;16.08;11.55;;;19.50;99.90;;;;;;5013622;28;20390;-59
2021/07/10 01:20:19;;;;;;;19.73;13.32;;;19.50;99.90;;;;;;4995587;28;20124;-59
2021/07/10 01:22:45;;;;;;;;;;;19.40;99.90;;;;;;5012566;28;20575;-60
2021/07/10 01:25:13;;;;;;;20.20;11.95;;;19.40;99.90;;;;;;5017401;28;19988;-59
2021/07/10 01:27:40;;;;;;;13.57;11.35;;;19.40;99.90;;;;;;5017393;28;20428;-59
2021/07/10 01:30:10;;;;;;;21.58;11.70;;;19.30;99.90;;;;;;5017456;28;20048;-60
2021/07/10 01:32:38;;;;;;;18.77;12.23;;;19.30;99.90;;;;;;4983208;28;20033;-59
2021/07/10 01:35:05;;;;;;;18.63;12.77;;;19.30;99.90;;;;;;5017490;28;20052;-59
2021/07/10 01:37:31;;;;;;;21.52;14.80;;;19.30;99.90;;;;;;4982314;28;20506;-59
2021/07/10 01:39:57;;;;;;;21.08;16.85;;;19.30;99.90;;;;;;5017323;28;20060;-59
2021/07/10 01:42:22;;;;;;;22.48;18.05;;;19.30;99.90;;;;;;5017322;28;20022;-59
2021/07/10 01:44:49;;;;;;;19.95;16.98;;;19.30;99.90;;;;;;5017340;28;20033;-59
2021/07/10 01:47:15;;;;;;;22.60;16.90;;;19.40;99.90;;;;;;5017055;28;20037;-59
2021/07/10 01:49:42;;;;;;;24.15;16.85;;;19.40;99.90;;;;;;4999206;28;20100;-59
2021/07/10 01:52:07;;;;;;;27.02;18.90;;;19.40;99.90;;;;;;5017239;28;20500;-59
2021/07/10 01:54:33;;;;;;;22.10;16.25;;;19.30;99.90;;;;;;5016819;28;20034;-59
2021/07/10 01:56:59;;;;;;;25.98;16.58;;;19.40;99.90;;;;;;4998909;28;20044;-59
2021/07/10 01:59:25;;;;;;;24.60;18.15;;;19.40;99.90;;;;;;5017033;28;20057;-60
2021/07/10 02:01:51;;;;;;;23.60;18.02;;;19.50;99.90;;;;;;5016727;28;20033;-59
2021/07/10 02:04:22;;;;;;;22.85;19.55;;;19.50;99.90;;;;;;4999029;28;20467;-59
2021/07/10 02:06:48;;;;;;;25.03;17.87;;;19.50;99.90;;;;;;5016808;28;20030;-59
2021/07/10 02:09:14;;;;;;;25.45;20.73;;;19.50;99.90;;;;;;5016545;28;20030;-59
2021/07/10 02:11:48;;;;;;;26.98;21.63;;;19.40;99.90;;;;;;5016158;28;20056;-59
2021/07/10 02:14:16;;;;;;;28.40;19.25;;;19.50;99.90;;;;;;5016894;28;20026;-59
2021/07/10 02:16:42;;;;;;;26.42;20.02;;;19.50;99.90;;;;;;5016437;28;20054;-59
2021/07/10 02:19:08;;;;;;;29.55;24.92;;;19.50;99.90;;;;;;5016431;28;20022;-59
2021/07/10 02:21:34;;;;;;;29.38;22.35;;;19.40;99.90;;;;;;5016463;28;20120;-59
2021/07/10 02:24:00;;;;;;;33.67;24.33;;;19.40;99.90;;;;;;5016363;28;20507;-59
2021/07/10 02:26:26;;;;;;;25.48;20.27;;;19.40;99.90;;;;;;4998353;28;20038;-59
2021/07/10 02:28:51;;;;;;;27.90;21.88;;;19.60;99.90;;;;;;4998164;28;20048;-59
2021/07/10 02:31:17;;;;;;;28.50;24.35;;;19.70;99.90;;;;;;5016297;28;20116;-59
2021/07/10 02:33:43;;;;;;;30.83;24.67;;;19.50;99.90;;;;;;4997750;28;20038;-59
2021/07/10 02:36:09;;;;;;;35.55;28.27;;;19.40;99.90;;;;;;5016379;28;20025;-59
2021/07/10 02:38:35;;;;;;;38.67;30.80;;;19.40;99.90;;;;;;5016284;28;20030;-59
2021/07/10 02:41:00;;;;;;;36.20;29.38;;;19.30;99.90;;;;;;4997943;28;20381;-59
2021/07/10 02:43:26;;;;;;;41.60;30.98;;;19.30;99.90;;;;;;5016003;28;20036;-59
2021/07/10 02:45:52;;;;;;;37.40;27.90;;;19.20;99.90;;;;;;5015877;28;20026;-59
2021/07/10 02:48:18;;;;;;;40.53;32.05;;;19.20;99.90;;;;;;5016050;28;20080;-59
2021/07/10 02:50:43;;;;;;;38.95;30.85;;;19.10;99.90;;;;;;5015811;28;20377;-59
2021/07/10 02:53:09;;;;;;;40.75;31.48;;;19.10;99.90;;;;;;5015865;28;20160;-59
2021/07/10 02:55:36;;;;;;;35.58;29.10;;;19.10;99.90;;;;;;5016133;28;20050;-59
2021/07/10 02:58:02;;;;;;;36.90;29.20;;;19.10;99.90;;;;;;5015899;28;20041;-59
2021/07/10 03:00:29;;;;;;;38.45;29.27;;;19.10;99.90;;;;;;5015898;28;20018;-59
2021/07/10 03:02:59;;;;;;;37.10;26.42;;;19.10;99.90;;;;;;5015795;28;20022;-59
2021/07/10 03:05:27;;;;;;;32.03;26.05;;;19.10;99.90;;;;;;5015699;28;20450;-59
2021/07/10 03:07:53;;;;;;;33.45;25.75;;;19.10;99.90;;;;;;5015444;28;20038;-59
2021/07/10 03:10:22;;;;;;;31.25;25.33;;;19.10;99.90;;;;;;5015756;28;20032;-59
2021/07/10 03:12:48;;;;;;;28.58;24.80;;;19.10;99.90;;;;;;4997093;28;20558;-59
2021/07/10 03:15:16;;;;;;;34.83;26.08;;;19.10;99.90;;;;;;5015452;28;20026;-60
2021/07/10 03:17:43;;;;;;;32.63;25.35;;;19.10;99.90;;;;;;5015300;28;20026;-59
2021/07/10 03:20:09;;;;;;;30.85;22.45;;;19.10;99.90;;;;;;5015777;28;20022;-59
2021/07/10 03:22:35;;;;;;;30.35;23.48;;;19.10;99.90;;;;;;4997478;28;20448;-59
2021/07/10 03:25:06;;;;;;;27.23;22.17;;;19.10;99.90;;;;;;4996948;28;20129;-59
2021/07/10 03:27:32;;;;;;;28.42;21.95;;;19.10;99.90;;;;;;5015319;28;20026;-59
2021/07/10 03:29:58;;;;;;;26.10;20.83;;;19.10;99.90;;;;;;5015083;28;20060;-59
2021/07/10 03:32:23;;;;;;;26.95;20.20;;;19.10;99.90;;;;;;5015536;28;20073;-59
2021/07/10 03:34:50;;;;;;;28.00;19.50;;;19.10;99.90;;;;;;4997095;28;20065;-59
2021/07/10 03:37:15;;;;;;;20.92;18.73;;;19.10;99.90;;;;;;5015196;28;20029;-59
2021/07/10 03:39:42;;;;;;;23.08;18.05;;;19.10;99.90;;;;;;5014862;28;20544;-59
2021/07/10 03:42:08;;;;;;;29.23;19.85;;;19.20;99.90;;;;;;5015146;28;20072;-58
2021/07/10 03:44:34;;;;;;;25.13;19.38;;;19.20;99.90;;;;;;5014272;28;20470;-59
2021/07/10 03:47:00;;;;;;;27.85;22.77;;;19.20;99.90;;;;;;5014772;28;20389;-59
2021/07/10 03:49:25;;;;;;;27.67;19.40;;;19.10;99.90;;;;;;5014723;28;20021;-60
2021/07/10 03:51:51;;;;;;;21.20;18.73;;;19.20;99.90;;;;;;5014767;28;20033;-59
2021/07/10 03:54:17;;;;;;;29.13;20.63;;;19.30;99.90;;;;;;5014853;28;20465;-59
2021/07/10 03:56:43;;;;;;;23.88;21.35;;;19.30;99.90;;;;;;4996683;28;20038;-59
2021/07/10 03:59:09;;;;;;;25.38;20.48;;;19.30;99.90;;;;;;4996219;28;20045;-59
2021/07/10 04:01:35;;;;;;;23.40;19.17;;;19.40;99.90;;;;;;4996559;28;20121;-58
2021/07/10 04:04:01;;;;;;;22.25;19.85;;;19.40;99.90;;;;;;5014587;28;20026;-59
2021/07/10 04:06:27;;;;;;;24.73;19.60;;;19.50;99.90;;;;;;5014607;28;20120;-59
2021/07/10 04:08:53;;;;;;;25.60;20.20;;;19.50;99.90;;;;;;5014419;28;20025;-59
2021/07/10 04:11:20;;;;;;;23.30;20.13;;;19.60;99.90;;;;;;5014295;28;20127;-58
2021/07/10 04:13:45;;;;;;;24.20;18.08;;;19.60;99.90;;;;;;5014541;28;20050;-58
2021/07/10 04:16:11;;;;;;;21.92;17.73;;;19.70;99.90;;;;;;4996223;28;20072;-58
2021/07/10 04:18:37;;;;;;;21.00;16.90;;;19.70;99.90;;;;;;4996119;28;20034;-58
2021/07/10 04:21:04;;;;;;;21.08;17.55;;;19.80;99.90;;;;;;5014282;28;20034;-58
2021/07/10 04:23:30;;;;;;;25.15;18.35;;;19.90;99.90;;;;;;5011175;28;20030;-58
2021/07/10 04:25:56;;;;;;;21.88;18.65;;;19.90;99.90;;;;;;4979744;28;20140;-59
2021/07/10 04:28:22;;;;;;;23.95;19.02;;;19.90;99.90;;;;;;4980070;28;20125;-59
2021/07/10 04:30:48;;;;;;;25.90;19.83;;;20.00;99.90;;;;;;5000623;28;20197;-58
2021/07/10 04:33:14;;;;;;;20.33;17.95;;;20.00;99.90;;;;;;5033583;28;20036;-58
2021/07/10 04:35:40;;;;;;;22.60;19.23;;;20.10;99.90;;;;;;4983298;28;20403;-59
2021/07/10 04:38:06;;;;;;;23.98;18.38;;;20.20;99.90;;;;;;4999250;28;20099;-59
2021/07/10 04:40:32;;;;;;;21.88;17.60;;;20.20;99.90;;;;;;5030228;28;20068;-58
2021/07/10 04:42:57;;;;;;;18.85;14.38;;;20.30;99.90;;;;;;5024013;28;20037;-58
2021/07/10 04:45:23;;;;;;;18.48;16.25;;;20.40;99.90;;;;;;5013865;28;20382;-58
2021/07/10 04:47:49;;;;;;;22.20;16.15;;;20.50;99.90;;;;;;5013883;28;20083;-58
2021/07/10 04:50:16;;;;;;;32.28;17.60;;;20.60;99.90;;;;;;5013627;28;20392;-57
2021/07/10 04:52:43;;;;;;;24.02;17.58;;;20.70;99.90;;;;;;4998352;28;20049;-58
2021/07/10 04:55:11;;;;;;;23.10;15.18;;;20.70;99.90;;;;;;5013639;28;20592;-58
2021/07/10 04:57:36;;;;;;;21.55;15.68;;;20.80;99.90;;;;;;5013796;28;20448;-59
2021/07/10 05:00:05;;;;;;;18.35;15.90;;;20.90;99.90;;;;;;4995728;28;20038;-59
2021/07/10 05:02:30;;;;;;;20.40;15.82;;;21.00;99.90;;;;;;5013596;28;20022;-58
2021/07/10 05:04:56;;;;;;;18.50;16.17;;;21.00;99.90;;;;;;5013861;28;20152;-58
2021/07/10 05:07:22;;;;;;;20.33;15.20;;;21.10;99.90;;;;;;5013783;28;20034;-59
2021/07/10 05:09:48;;;;;;;18.33;13.48;;;;;;;;;;5013531;28;20083;-57
2021/07/10 05:12:16;;;;;;;14.20;12.60;;;21.20;99.90;;;;;;5000154;28;20381;-58
2021/07/10 05:14:42;;;;;;;20.98;12.32;;;21.20;99.90;;;;;;5022202;28;20072;-58
2021/07/10 05:17:08;;;;;;;14.90;12.40;;;21.30;99.90;;;;;;5005736;28;20504;-58
2021/07/10 05:19:33;;;;;;;16.92;12.55;;;21.30;99.90;;;;;;5013443;28;20026;-58
2021/07/10 05:21:59;;;;;;;17.85;12.50;;;21.30;99.90;;;;;;5020453;28;20494;-57
2021/07/10 05:24:25;;;;;;;18.10;12.88;;;21.40;99.90;;;;;;5032854;28;20033;-59
2021/07/10 05:26:51;;;;;;;19.10;13.30;;;21.30;99.90;;;;;;5033258;28;20057;-58
2021/07/10 05:29:16;;;;;;;17.83;13.23;;;21.30;99.90;;;;;;4998662;28;20116;-57
2021/07/10 05:31:42;;;;;;;17.33;11.82;;;21.40;99.90;;;;;;4981634;28;20120;-57
2021/07/10 05:34:08;;;;;;;19.85;11.98;;;21.40;99.90;;;;;;4998435;28;20072;-57
2021/07/10 05:36:34;;;;;;;17.13;12.55;;;21.50;99.90;;;;;;5033170;28;20030;-57
2021/07/10 05:39:00;;;;;;;16.13;11.93;;;21.60;99.90;;;;;;5033067;28;20041;-59
2021/07/10 05:41:26;;;;;;;15.18;11.30;;;21.70;99.90;;;;;;4998667;28;20645;-58
2021/07/10 05:43:52;;;;;;;18.02;13.90;;;21.70;99.90;;;;;;5032952;28;20026;-57
2021/07/10 05:46:18;;;;;;;14.68;12.00;;;22.00;99.90;;;;;;5032897;28;20079;-59
2021/07/10 05:48:44;;;;;;;13.50;10.55;;;22.00;99.90;;;;;;5032991;28;20069;-58
2021/07/10 05:51:10;;;;;;;15.55;11.75;;;22.20;99.90;;;;;;5032755;28;20072;-57
2021/07/10 05:53:36;;;;;;;17.27;11.25;;;22.40;99.90;;;;;;4998341;28;20029;-62
2021/07/10 05:56:02;;;;;;;14.13;10.30;;;22.40;99.90;;;;;;5032680;28;20029;-59
2021/07/10 05:58:28;;;;;;;11.98;10.20;;;22.50;99.90;;;;;;5032971;28;20112;-58
2021/07/10 06:00:53;;;;;;;13.95;10.30;;;22.60;99.90;;;;;;5026249;28;20105;-57
2021/07/10 06:03:19;;;;;;;11.38;10.05;;;;;;;;;;4978729;28;20129;-58
2021/07/10 06:05:45;;;;;;;14.40;10.88;;;23.90;99.90;;;;;;5023347;28;20021;-58
2021/07/10 06:08:11;;;;;;;13.02;10.20;;;23.10;99.90;;;;;;5022536;28;20029;-61
2021/07/10 06:10:36;;;;;;;14.07;10.15;;;23.20;99.90;;;;;;4999238;28;20068;-59
2021/07/10 06:13:03;;;;;;;14.45;9.70;;;23.10;99.90;;;;;;5022002;28;20044;-58
2021/07/10 06:15:28;;;;;;;15.43;9.93;;;23.10;99.90;;;;;;5020352;28;20030;-59
2021/07/10 06:17:54;;;;;;;9.55;7.90;;;23.20;99.90;;;;;;5020082;28;20029;-60
2021/07/10 06:20:22;;;;;;;9.70;8.70;;;23.10;99.90;;;;;;5015086;28;20105;-61
2021/07/10 06:22:50;;;;;;;10.48;9.02;;;23.10;99.90;;;;;;5015699;28;20033;-59
2021/07/10 06:25:17;;;;;;;10.30;7.85;;;23.10;99.90;;;;;;5027889;28;20048;-60
2021/07/10 06:27:45;;;;;;;9.52;8.35;;;23.00;99.90;;;;;;4985862;28;20046;-57
2021/07/10 06:30:12;;;;;;;13.93;8.25;;;23.00;99.90;;;;;;4974038;28;20049;-62
2021/07/10 06:32:38;;;;;;;8.05;7.32;;;23.00;99.90;;;;;;5036109;28;20496;-64
2021/07/10 06:35:05;;;;;;;9.82;7.03;;;23.00;99.90;;;;;;5035653;28;20033;-60
2021/07/10 06:37:31;;;;;;;8.23;6.28;;;23.00;99.90;;;;;;5035568;28;20439;-62
2021/07/10 06:39:57;;;;;;;10.85;6.63;;;23.00;99.90;;;;;;4984640;28;20033;-60
2021/07/10 06:42:23;;;;;;;9.57;6.95;;;22.90;99.90;;;;;;5035804;28;20029;-69
2021/07/10 06:44:49;;;;;;;9.98;5.88;;;22.90;99.90;;;;;;5035791;28;20056;-65
2021/07/10 06:47:15;;;;;;;7.13;6.40;;;22.90;99.90;;;;;;5035763;28;20025;-60
2021/07/10 06:49:41;;;;;;;10.85;6.40;;;22.90;99.90;;;;;;4984665;28;20476;-62
2021/07/10 06:52:07;;;;;;;8.75;5.75;;;22.90;99.90;;;;;;5035485;28;20075;-63
2021/07/10 06:54:33;;;;;;;7.10;5.70;;;22.90;99.90;;;;;;4984794;28;20045;-60
2021/07/10 06:56:59;;;;;;;6.20;4.90;;;23.10;99.90;;;;;;5035498;28;20084;-63
2021/07/10 06:59:24;;;;;;;10.07;5.82;;;23.20;99.90;;;;;;5035250;28;20030;-61
2021/07/10 07:01:51;;;;;;;8.30;6.05;;;;;;;;;;5035335;28;20029;-63
2021/07/10 07:04:20;;;;;;;6.20;5.13;;;;;;;;;;5035287;28;20021;-61
2021/07/10 07:06:46;;;;;;;11.15;7.03;;;;;;;;;;5035320;28;20080;-61
2021/07/10 07:09:13;;;;;;;7.50;6.00;;;;;;;;;;5034907;28;20033;-61
2021/07/10 07:11:39;;;;;;;9.38;5.72;;;24.10;99.90;;;;;;5023936;28;20117;-64
2021/07/10 07:14:05;;;;;;;7.97;5.93;;;24.10;99.90;;;;;;5015324;28;20060;-61
2021/07/10 07:16:32;;;;;;;8.07;5.75;;;24.30;99.90;;;;;;5015092;28;20115;-63
2021/07/10 07:18:57;;;;;;;6.30;5.70;;;24.50;99.90;;;;;;5015174;28;20500;-64
2021/07/10 07:21:24;;;;;;;8.48;5.40;;;;;;;;;;5015181;28;20026;-63
2021/07/10 07:23:50;;;;;;;8.45;5.28;;;;;;;;;;5015122;28;20036;-64
2021/07/10 07:26:19;;;;;;;5.90;4.75;;;24.70;99.90;;;;;;5015052;28;20021;-65
2021/07/10 07:28:45;;;;;;;5.88;4.90;;;;;;;;;;5015272;28;20065;-63
2021/07/10 07:31:11;;;;;;;5.95;4.65;;;;;;;;;;5014829;28;20125;-63
2021/07/10 07:33:37;;;;;;;8.30;5.38;;;25.00;99.90;;;;;;5020307;28;20539;-62
2021/07/10 07:36:03;;;;;;;14.80;4.57;;;;;;;;;;5020577;28;20026;-64
2021/07/10 07:38:29;;;;;;;6.20;4.38;;;;;;;;;;4996648;28;20389;-63
2021/07/10 07:40:55;;;;;;;8.57;5.22;;;25.60;99.90;;;;;;5015142;28;20030;-65
2021/07/10 07:43:21;;;;;;;9.07;5.07;;;25.50;99.90;;;;;;4980362;28;20494;-64
2021/07/10 07:45:47;;;;;;;9.18;5.07;;;25.70;99.90;;;;;;4996732;28;20485;-63
2021/07/10 07:48:13;;;;;;;5.90;5.22;;;25.50;99.90;;;;;;5014863;28;20112;-66
2021/07/10 07:50:38;;;;;;;6.63;4.80;;;25.50;99.90;;;;;;5022124;28;20500;-63
2021/07/10 07:53:04;;;;;;;8.70;5.40;;;25.70;99.90;;;;;;5023951;28;20113;-65
2021/07/10 07:55:31;;;;;;;5.82;5.13;;;25.80;99.90;;;;;;5023339;28;20108;-65
2021/07/10 07:57:56;;;;;;;8.93;6.07;;;25.60;99.90;;;;;;5024766;28;20021;-67
2021/07/10 08:00:23;;;;;;;8.73;5.68;;;25.70;99.90;;;;;;5024165;28;20014;-64
2021/07/10 08:02:49;;;;;;;7.68;5.38;;;25.60;99.90;;;;;;5023476;28;20045;-65
2021/07/10 08:05:16;;;;;;;9.63;6.05;;;26.00;99.90;;;;;;5025269;28;20021;-62
2021/07/10 08:07:43;;;;;;;8.05;5.55;;;26.00;99.90;;;;;;5030667;28;20509;-65
2021/07/10 08:10:12;;;;;;;7.10;4.93;;;26.10;99.90;;;;;;5033962;28;20463;-68
2021/07/10 08:12:39;;;;;;;8.00;6.00;;;26.30;99.90;;;;;;4983581;28;20054;-68
2021/07/10 08:15:07;;;;;;;9.18;6.03;;;26.60;99.90;;;;;;5033893;28;20473;-63
2021/07/10 08:17:33;;;;;;;10.30;6.20;;;26.80;99.90;;;;;;4983650;28;20120;-66
2021/07/10 08:19:59;;;;;;;9.57;6.43;;;27.40;99.90;;;;;;5033738;28;20033;-63
2021/07/10 08:22:25;;;;;;;8.57;5.90;;;27.30;99.90;;;;;;5033741;28;20018;-64
2021/07/10 08:24:51;;;;;;;8.70;5.68;;;26.40;99.90;;;;;;5033708;28;20032;-65
2021/07/10 08:27:17;;;;;;;9.38;6.95;;;27.30;99.90;;;;;;5033868;28;20029;-66
2021/07/10 08:29:42;;;;;;;9.13;5.85;;;27.20;99.60;;;;;;5033589;28;20028;-63
2021/07/10 08:32:09;;;;;;;5.75;4.45;;;27.20;98.50;;;;;;4998610;28;20069;-63
2021/07/10 08:34:35;;;;;;;6.25;4.35;;;27.20;98.50;;;;;;5033677;28;20025;-64
2021/07/10 08:37:02;;;;;;;8.27;4.78;;;27.40;98.10;;;;;;5033613;28;20033;-64
2021/07/10 08:39:29;;;;;;;6.03;4.13;;;28.20;97.10;;;;;;5033515;28;20021;-65
2021/07/10 08:41:55;;;;;;;8.35;4.32;;;;;;;;;;5033561;28;20401;-63
2021/07/10 08:44:22;;;;;;;12.45;4.93;;;31.40;97.90;;;;;;5033334;28;20033;-64
2021/07/10 08:46:48;;;;;;;7.20;4.60;;;;;;;;;;5033289;28;20549;-61
2021/07/10 08:49:15;;;;;;;7.30;3.88;;;;;;;;;;5033444;28;20084;-63
2021/07/10 08:51:43;;;;;;;6.50;4.28;;;;;;;;;;5033407;28;20044;-61
2021/07/10 08:54:09;;;;;;;6.80;4.68;;;37.60;70.80;;;;;;5033423;28;20022;-66
2021/07/10 08:56:35;;;;;;;5.53;4.93;;;37.30;66.50;;;;;;5027112;28;20036;-61
2021/07/10 08:59:01;;;;;;;6.20;3.83;;;;;;;;;;5022155;28;20084;-63
2021/07/10 09:01:27;;;;;;;5.57;3.63;;;39.80;61.70;;;;;;5013544;28;20040;-62
2021/07/10 09:03:53;;;;;;;11.15;3.88;;;38.50;62.00;;;;;;5017140;28;20034;-62
2021/07/10 09:06:19;;;;;;;7.28;3.92;;;39.20;60.20;;;;;;5020884;28;20061;-61
2021/07/10 09:08:57;;;;;;;8.75;4.30;;;33.80;64.00;;;;;;5013592;28;20030;-61
2021/07/10 09:11:24;;;;;;;8.25;4.35;;;32.70;68.50;;;;;;5013657;28;20072;-60
2021/07/10 09:13:54;;;;;;;4.40;3.53;;;34.20;67.70;;;;;;5013512;28;20481;-60
2021/07/10 09:16:26;;;;;;;6.68;3.63;;;32.80;68.60;;;;;;5013354;28;20038;-60
2021/07/10 09:18:56;;;;;;;6.03;4.03;;;32.30;68.60;;;;;;5020724;28;20680;-60
2021/07/10 09:21:42;;;;;;;6.72;3.80;;;32.90;69.10;;;;;;5022015;28;20072;-62
2021/07/10 09:24:30;;;;;;;6.68;3.47;;;32.50;80.50;;;;;;5023751;28;20060;-60
2021/07/10 09:26:59;;;;;;;5.63;3.30;;;31.90;72.70;;;;;;5016107;28;20025;-65
2021/07/10 09:29:29;;;;;;;9.25;3.05;;;33.00;81.20;;;;;;4979643;28;20039;-62
2021/07/10 09:32:07;;;;;;;10.23;3.35;;;33.00;68.40;;;;;;4975565;28;20053;-64
2021/07/10 09:34:39;;;;;;;6.25;3.10;;;33.10;66.30;;;;;;4977759;28;20433;-59
2021/07/10 09:37:06;;;;;;;5.45;2.80;;;32.30;67.70;;;;;;4979212;28;20126;-61
2021/07/10 09:39:43;;;;;;;6.65;3.30;;;33.30;65.70;;;;;;4987434;28;20047;-60
2021/07/10 09:42:13;;;;;;;6.53;3.42;;;33.30;67.50;;;;;;4990269;28;20030;-59
2021/07/10 09:44:41;;;;;;;6.68;3.80;;;33.20;66.50;;;;;;4993280;28;20110;-59
2021/07/10 09:47:07;;;;;;;5.38;2.45;;;32.40;65.80;;;;;;4994043;28;20701;-58
2021/07/10 09:49:33;;;;;;;3.85;2.85;;;33.20;67.80;;;;;;4991759;28;20041;-59
2021/07/10 09:52:25;;;;;;;6.43;2.90;;;34.80;64.60;;;;;;4984147;28;20043;-58
2021/07/10 09:54:52;;;;;;;;;;;33.60;62.60;;;;;;4982295;28;20030;-59
2021/07/10 09:57:25;;;;;;;4.78;2.40;;;33.90;64.20;;;;;;4989830;28;19906;-59
2021/07/10 09:59:53;;;;;;;3.75;2.40;;;34.40;62.80;;;;;;4986201;28;20054;-59
2021/07/10 10:02:26;;;;;;;5.70;2.78;;;31.80;65.80;;;;;;4993184;28;20034;-58
2021/07/10 10:05:00;;;;;;;5.97;2.83;;;30.60;69.30;;;;;;4992925;28;20116;-59
2021/07/10 10:07:25;;;;;;;4.32;3.08;;;31.80;68.60;;;;;;4993008;28;20097;-58
2021/07/10 10:09:58;;;;;;;10.55;3.05;;;32.20;68.20;;;;;;4993442;28;20467;-59
2021/07/10 10:12:26;;;;;;;5.57;2.90;;;31.90;65.80;;;;;;4993452;28;20054;-58
2021/07/10 10:14:56;;;;;;;4.15;2.50;;;31.70;67.80;;;;;;4993446;28;20371;-58
2021/07/10 10:17:25;;;;;;;9.38;3.00;;;31.00;68.20;;;;;;4993578;28;20418;-58
2021/07/10 10:19:51;;;;;;;3.22;2.90;;;;;;;;;;4998009;28;20046;-59
2021/07/10 10:22:19;;;;;;;5.57;2.28;;;33.60;66.20;;;;;;5015261;28;20030;-58
2021/07/10 10:24:48;;;;;;;3.88;2.53;;;34.30;63.50;;;;;;5015180;28;20092;-58
2021/07/10 10:27:15;;;;;;;4.57;3.03;;;32.60;65.50;;;;;;5013237;28;20068;-59
2021/07/10 10:29:41;;;;;;;6.15;2.78;;;31.20;66.80;;;;;;5015263;28;20037;-58
2021/07/10 10:32:08;;;;;;;4.97;2.60;;;31.90;67.20;;;;;;5015077;28;20041;-61
2021/07/10 10:34:35;;;;;;;7.88;2.70;;;32.50;66.20;;;;;;4998769;28;20482;-59
2021/07/10 10:37:02;;;;;;;6.53;2.70;;;32.70;67.10;;;;;;4996476;28;20076;-58
2021/07/10 10:39:35;;;;;;;7.13;4.75;;;;;;;;;;4996662;28;20034;-59
2021/07/10 10:42:09;;;;;;;5.63;2.80;;;38.40;71.70;;;;;;4996248;28;20027;-59
2021/07/10 10:44:39;;;;;;;4.20;2.65;;;;;;;;;;4995266;28;20432;-60
2021/07/10 10:47:05;;;;;;;7.38;2.50;;;;;;;;;;4996205;28;20033;-59
2021/07/10 10:49:31;;;;;;;7.32;2.63;;;38.90;75.40;;;;;;4996250;28;20105;-59
2021/07/10 10:52:17;;;;;;;5.50;2.75;;;36.50;57.30;;;;;;4996294;28;20117;-59
2021/07/10 10:54:55;;;;;;;4.07;2.20;;;37.70;57.20;;;;;;4996070;28;20022;-58
2021/07/10 10:57:39;;;;;;;8.55;2.65;;;38.00;55.00;;;;;;4996055;28;20481;-59
2021/07/10 11:00:29;;;;;;;5.03;2.47;;;36.70;55.50;;;;;;4996007;28;20026;-60
2021/07/10 11:03:12;;;;;;;6.70;2.80;;;36.70;56.40;;;;;;4995617;28;20034;-59
2021/07/10 11:05:54;;;;;;;7.07;3.15;;;37.40;55.00;;;;;;4997643;28;20493;-59
2021/07/10 11:08:22;;;;;;;4.00;2.50;;;37.10;57.10;;;;;;5027042;28;20031;-59
2021/07/10 11:10:56;;;;;;;3.38;2.75;;;36.70;57.20;;;;;;5005173;28;20144;-61
2021/07/10 11:13:46;;;;;;;4.45;2.28;;;37.80;55.50;;;;;;5023574;28;20080;-60
2021/07/10 11:16:20;;;;;;;6.35;2.85;;;38.40;55.00;;;;;;5025093;28;20080;-58
2021/07/10 11:18:59;;;;;;;4.28;2.30;;;37.00;56.90;;;;;;5017482;28;20092;-59
2021/07/10 11:21:34;;;;;;;5.90;2.53;;;37.80;56.30;;;;;;5030282;28;20038;-60
2021/07/10 11:26:56;;;;;;;4.60;2.28;;;36.40;57.40;;;;;;5014798;28;20107;-59
2021/07/10 11:29:29;;;;;;;4.47;2.65;;;38.30;81.50;;;;;;5015202;28;20022;-59
2021/07/10 11:32:18;;;;;;;7.20;2.50;;;38.30;53.20;;;;;;5014828;28;20034;-60
2021/07/10 11:34:50;;;;;;;6.60;2.72;;;35.60;61.40;;;;;;5015087;28;20053;-59
2021/07/10 11:37:24;;;;;;;4.20;2.63;;;36.90;56.60;;;;;;5033079;28;20033;-57
2021/07/10 11:40:04;;;;;;;5.15;2.42;;;37.60;62.60;;;;;;5034746;28;20092;-57
2021/07/10 11:42:35;;;;;;;3.33;2.08;;;;;;;;;;5034558;28;20049;-58
2021/07/10 11:45:04;;;;;;;4.93;2.47;;;42.10;75.60;;;;;;5034625;28;20029;-58
2021/07/10 11:47:34;;;;;;;4.72;2.72;;;41.00;67.40;;;;;;5033936;28;20375;-57
2021/07/10 11:50:01;;;;;;;3.92;2.65;;;;;;;;;;5031053;28;20436;-57
2021/07/10 11:52:27;;;;;;;2.85;2.50;;;40.30;52.70;;;;;;5034294;28;20377;-58
2021/07/10 11:54:57;;;;;;;4.13;2.78;;;;;;;;;;5032318;28;20028;-58
2021/07/10 11:57:27;;;;;;;5.60;2.70;;;35.40;56.20;;;;;;5034332;28;20056;-57
2021/07/10 11:59:57;;;;;;;5.28;2.70;;;35.20;57.20;;;;;;5034106;28;20032;-57
2021/07/10 12:02:32;;;;;;;8.60;3.08;;;36.30;58.90;;;;;;5014485;28;20084;-57
2021/07/10 12:05:11;;;;;;;7.03;3.55;;;37.20;58.20;;;;;;5014347;28;20092;-58
2021/07/10 12:07:48;;;;;;;6.07;2.38;;;38.70;53.00;;;;;;5019532;28;20029;-58
2021/07/10 12:10:35;;;;;;;5.85;2.90;;;41.60;53.20;;;;;;5033908;28;20022;-58
2021/07/10 12:13:03;;;;;;;8.30;3.15;;;41.20;50.60;;;;;;4982875;28;20393;-58
2021/07/10 12:15:33;;;;;;;5.80;2.78;;;43.60;53.50;;;;;;5034066;28;20025;-59
2021/07/10 12:18:01;;;;;;;5.55;2.65;;;45.30;47.50;;;;;;5034063;28;20021;-58
2021/07/10 12:20:30;;;;;;;8.10;2.70;;;46.50;46.40;;;;;;5033886;28;20472;-58
2021/07/10 12:23:00;;;;;;;4.32;2.67;;;41.10;47.20;;;;;;5033808;28;20476;-59
2021/07/10 12:25:41;;;;;;;6.43;2.83;;;39.30;49.10;;;;;;5033979;28;20512;-58
2021/07/10 12:28:07;;;;;;;3.78;2.60;;;;;;;;;;5033759;28;20064;-58
2021/07/10 12:30:48;;;;;;;7.50;3.22;;;39.50;53.30;;;;;;5033619;28;20029;-58
2021/07/10 12:33:35;;;;;;;4.00;2.78;;;39.00;52.70;;;;;;5033285;28;20041;-59
2021/07/10 12:36:15;;;;;;;4.25;2.97;;;38.50;52.60;;;;;;5030528;28;20072;-59
2021/07/10 12:39:00;;;;;;;3.65;3.05;;;41.00;50.70;;;;;;5033564;28;20044;-58
2021/07/10 12:41:35;;;;;;;4.32;3.00;;;39.10;51.80;;;;;;5033635;28;20053;-58
2021/07/10 12:44:30;;;;;;;7.80;5.50;;;37.60;53.20;;;;;;5033559;28;20045;-57
2021/07/10 12:47:08;;;;;;;5.65;2.58;;;39.70;53.50;;;;;;5026913;28;20416;-58
2021/07/10 12:49:38;;;;;;;4.15;2.83;;;40.90;49.70;;;;;;5033619;28;20460;-58
2021/07/10 12:52:14;;;;;;;3.70;2.85;;;43.10;48.40;;;;;;5024824;28;20033;-59
2021/07/10 12:54:52;;;;;;;3.80;2.75;;;46.10;47.50;;;;;;4953347;29;20047;-58